createdAt,value
2019-03-06T00:00:45.538Z,14.60
2019-03-06T00:03:14.715Z,13.83
2019-03-06T00:05:43.826Z,17.33
2019-03-06T00:08:12.903Z,16.50
2019-03-06T00:10:42.929Z,16.93
2019-03-06T00:13:12.019Z,19.30
2019-03-06T00:15:41.853Z,15.83
2019-03-06T00:18:10.940Z,16.70
2019-03-06T00:20:40.053Z,18.93
2019-03-06T00:23:09.136Z,16.97
2019-03-06T00:25:38.246Z,17.73
2019-03-06T00:28:07.656Z,15.63
2019-03-06T00:30:36.759Z,17.70
2019-03-06T00:33:05.844Z,21.73
2019-03-06T00:35:38.459Z,20.70
2019-03-06T00:38:07.543Z,22.53
2019-03-06T00:41:07.718Z,23.40
2019-03-06T00:43:36.886Z,23.37
2019-03-06T00:46:05.989Z,23.33
2019-03-06T00:48:35.079Z,23.57
2019-03-06T00:51:04.185Z,26.97
2019-03-06T00:53:33.269Z,27.77
2019-03-06T00:56:02.377Z,31.37
2019-03-06T00:58:31.483Z,26.27
2019-03-06T01:01:00.594Z,31.63
2019-03-06T01:03:29.695Z,30.67
2019-03-06T01:05:58.798Z,36.87
2019-03-06T01:08:27.885Z,35.60
2019-03-06T01:10:56.992Z,31.57
2019-03-06T01:13:26.087Z,30.90
2019-03-06T01:15:55.198Z,32.80
2019-03-06T01:18:25.183Z,36.63
2019-03-06T01:20:54.296Z,30.77
2019-03-06T01:23:23.410Z,31.60
2019-03-06T01:25:52.496Z,32.23
2019-03-06T01:28:21.633Z,28.33
2019-03-06T01:30:50.721Z,30.33
2019-03-06T01:33:31.240Z,32.00
2019-03-06T01:36:18.049Z,31.03
2019-03-06T01:39:12.004Z,30.33
2019-03-06T01:42:00.086Z,27.33
2019-03-06T01:44:33.951Z,30.23
2019-03-06T01:47:03.079Z,29.80
2019-03-06T01:49:32.168Z,26.00
2019-03-06T01:52:01.304Z,27.50
2019-03-06T01:54:30.373Z,28.97
2019-03-06T01:56:59.460Z,27.20
2019-03-06T01:59:28.568Z,28.67
2019-03-06T02:01:57.662Z,28.80
2019-03-06T02:04:26.805Z,26.37
2019-03-06T02:06:55.910Z,27.93
2019-03-06T02:09:27.939Z,26.77
2019-03-06T02:11:57.203Z,25.40
2019-03-06T02:14:26.319Z,26.57
2019-03-06T02:16:55.508Z,28.83
2019-03-06T02:19:24.624Z,25.97
2019-03-06T02:21:53.717Z,24.50
2019-03-06T02:24:22.900Z,24.47
2019-03-06T02:26:51.992Z,25.27
2019-03-06T02:29:21.134Z,21.00
2019-03-06T02:31:50.221Z,19.87
2019-03-06T02:34:19.332Z,21.63
2019-03-06T02:36:48.592Z,23.33
2019-03-06T02:39:17.751Z,22.93
2019-03-06T02:41:46.795Z,17.67
2019-03-06T02:44:15.906Z,20.13
2019-03-06T02:46:45.080Z,17.77
2019-03-06T02:49:14.282Z,19.67
2019-03-06T02:51:43.373Z,18.73
2019-03-06T02:54:12.493Z,20.07
2019-03-06T02:56:41.584Z,18.03
2019-03-06T02:59:28.348Z,15.67
2019-03-06T03:02:14.518Z,16.00
2019-03-06T03:05:04.878Z,18.30
2019-03-06T03:07:33.963Z,18.60
2019-03-06T03:10:03.071Z,20.23
2019-03-06T03:12:32.152Z,16.60
2019-03-06T03:15:01.280Z,16.47
2019-03-06T03:17:30.534Z,16.47
2019-03-06T03:19:59.635Z,17.17
2019-03-06T03:22:28.718Z,14.87
2019-03-06T03:24:57.817Z,19.13
2019-03-06T03:27:26.906Z,16.90
2019-03-06T03:29:56.022Z,15.10
2019-03-06T03:32:25.126Z,14.67
2019-03-06T03:34:54.257Z,17.17
2019-03-06T03:37:23.310Z,16.30
2019-03-06T03:39:52.388Z,13.93
2019-03-06T03:42:21.495Z,17.33
2019-03-06T03:44:50.666Z,15.00
2019-03-06T03:47:19.757Z,16.80
2019-03-06T03:49:48.854Z,16.60
2019-03-06T03:52:17.960Z,17.30
2019-03-06T03:54:47.051Z,15.83
2019-03-06T03:57:16.238Z,16.83
2019-03-06T03:59:45.331Z,16.87
2019-03-06T04:02:14.448Z,17.03
2019-03-06T04:04:43.531Z,15.43
2019-03-06T04:07:12.646Z,17.47
2019-03-06T04:09:42.014Z,16.70
2019-03-06T04:12:11.116Z,15.43
2019-03-06T04:14:40.201Z,15.83
2019-03-06T04:17:09.302Z,13.37
2019-03-06T04:19:38.377Z,14.80
2019-03-06T04:22:07.477Z,14.50
2019-03-06T04:24:36.560Z,16.20
2019-03-06T04:27:05.671Z,13.93
2019-03-06T04:29:34.782Z,15.17
2019-03-06T04:32:03.867Z,15.90
2019-03-06T04:34:32.966Z,13.33
2019-03-06T04:37:02.071Z,11.33
2019-03-06T04:39:31.146Z,11.97
2019-03-06T04:42:00.226Z,13.17
2019-03-06T04:44:29.332Z,13.27
2019-03-06T04:46:58.414Z,15.27
2019-03-06T04:49:27.526Z,12.47
2019-03-06T04:51:56.612Z,13.80
2019-03-06T04:54:25.716Z,13.03
2019-03-06T04:56:54.813Z,11.07
2019-03-06T04:59:23.916Z,12.40
2019-03-06T05:01:53.003Z,11.93
2019-03-06T05:04:22.108Z,10.47
2019-03-06T05:06:51.199Z,10.73
2019-03-06T05:09:20.303Z,11.50
2019-03-06T05:11:49.377Z,9.40
2019-03-06T05:14:18.470Z,9.80
2019-03-06T05:17:05.196Z,8.47
2019-03-06T05:19:34.294Z,8.10
2019-03-06T05:22:03.548Z,7.30
2019-03-06T05:24:32.642Z,6.33
2019-03-06T05:27:01.753Z,8.43
2019-03-06T05:29:30.881Z,83.33
2019-03-06T05:32:48.933Z,20.07
2019-03-06T05:35:24.670Z,5.90
2019-03-06T05:38:03.007Z,4.77
2019-03-06T05:40:32.089Z,4.87
2019-03-06T05:43:01.200Z,5.50
2019-03-06T05:45:30.295Z,6.83
2019-03-06T05:47:59.379Z,6.83
2019-03-06T05:50:28.491Z,4.83
2019-03-06T05:52:57.567Z,4.23
2019-03-06T05:55:26.657Z,4.67
2019-03-06T05:57:55.735Z,5.63
2019-03-06T06:00:26.452Z,3.80
2019-03-06T06:02:55.526Z,4.10
2019-03-06T06:05:24.632Z,5.90
2019-03-06T06:07:53.706Z,4.40
2019-03-06T06:10:22.802Z,7.00
2019-03-06T06:12:52.315Z,4.27
2019-03-06T06:15:21.420Z,4.97
2019-03-06T06:17:50.498Z,3.57
2019-03-06T06:20:19.597Z,6.33
2019-03-06T06:23:06.462Z,4.37
2019-03-06T06:25:35.845Z,5.67
2019-03-06T06:28:04.922Z,3.43
2019-03-06T06:30:34.127Z,4.60
2019-03-06T06:33:03.212Z,5.30
2019-03-06T06:35:32.309Z,3.23
2019-03-06T06:38:01.383Z,4.30
2019-03-06T06:40:30.484Z,5.47
2019-03-06T06:42:59.559Z,3.40
2019-03-06T06:45:28.669Z,5.73
2019-03-06T06:48:28.841Z,5.20
2019-03-06T06:51:52.737Z,5.73
2019-03-06T06:54:27.391Z,5.07
2019-03-06T06:57:15.233Z,5.00
2019-03-06T07:00:12.590Z,5.80
2019-03-06T07:03:25.414Z,5.77
2019-03-06T07:06:05.593Z,4.73
2019-03-06T07:08:52.374Z,4.77
2019-03-06T07:11:39.087Z,5.27
2019-03-06T07:14:18.490Z,5.03
2019-03-06T07:16:57.626Z,6.97
2019-03-06T07:19:57.672Z,4.47
2019-03-06T07:22:44.490Z,6.20
2019-03-06T07:25:30.991Z,4.10
2019-03-06T07:28:37.278Z,5.77
2019-03-06T07:31:21.484Z,4.80
2019-03-06T07:34:07.679Z,4.30
2019-03-06T07:36:48.853Z,4.57
2019-03-06T07:39:23.693Z,5.17
2019-03-06T07:42:20.937Z,6.87
2019-03-06T07:45:59.088Z,6.83
2019-03-06T07:48:40.919Z,5.63
2019-03-06T07:51:27.482Z,5.60
2019-03-06T07:54:21.742Z,5.37
2019-03-06T07:56:53.998Z,5.17
2019-03-06T07:59:23.094Z,4.93
2019-03-06T08:02:04.647Z,4.87
2019-03-06T08:04:33.742Z,5.43
2019-03-06T08:07:12.848Z,5.77
2019-03-06T08:09:41.946Z,5.50
2019-03-06T08:12:30.034Z,3.83
2019-03-06T08:15:36.303Z,4.87
2019-03-06T08:18:11.787Z,4.43
2019-03-06T08:20:49.022Z,3.37
2019-03-06T08:23:55.203Z,3.50
2019-03-06T08:26:24.309Z,3.47
2019-03-06T08:28:53.487Z,3.50
2019-03-06T08:31:27.155Z,5.00
2019-03-06T08:33:56.236Z,3.97
2019-03-06T08:36:25.345Z,5.60
2019-03-06T08:38:54.424Z,5.27
2019-03-06T08:41:23.527Z,2.47
2019-03-06T08:43:52.616Z,4.67
2019-03-06T08:46:40.684Z,2.50
2019-03-06T08:49:28.738Z,2.97
2019-03-06T08:52:12.894Z,3.90
2019-03-06T08:54:54.034Z,3.80
2019-03-06T08:57:31.832Z,4.23
2019-03-06T09:00:38.164Z,3.03
2019-03-06T09:03:26.680Z,3.27
2019-03-06T09:06:23.586Z,2.97
2019-03-06T09:09:10.044Z,4.03
2019-03-06T09:11:57.742Z,3.17
2019-03-06T09:14:44.451Z,1.60
2019-03-06T09:17:35.705Z,3.17
2019-03-06T09:20:23.551Z,4.43
2019-03-06T09:23:26.852Z,4.23
2019-03-06T09:26:13.556Z,3.90
2019-03-06T09:29:00.498Z,2.53
2019-03-06T09:31:35.243Z,2.80
2019-03-06T09:34:14.417Z,3.60
2019-03-06T09:37:02.492Z,3.87
2019-03-06T09:39:38.493Z,2.57
2019-03-06T09:42:32.764Z,2.77
2019-03-06T09:45:35.793Z,3.07
2019-03-06T09:48:22.273Z,4.57
2019-03-06T09:51:06.780Z,3.27
2019-03-06T09:53:44.974Z,5.30
2019-03-06T09:56:31.966Z,2.50
2019-03-06T09:59:12.280Z,1.97
2019-03-06T10:02:06.475Z,2.40
2019-03-06T10:04:47.888Z,3.63
2019-03-06T10:07:41.792Z,3.60
2019-03-06T10:10:28.299Z,2.93
2019-03-06T10:13:25.287Z,2.33
2019-03-06T10:16:19.430Z,3.20
2019-03-06T10:18:59.208Z,2.50
2019-03-06T10:21:28.258Z,2.60
2019-03-06T10:23:57.368Z,3.57
2019-03-06T10:26:28.794Z,2.70
2019-03-06T10:28:57.567Z,2.13
2019-03-06T10:31:26.659Z,1.60
2019-03-06T10:33:55.768Z,1.00
2019-03-06T10:36:24.850Z,1.90
2019-03-06T10:38:53.949Z,4.23
2019-03-06T10:41:23.310Z,2.30
2019-03-06T10:43:52.412Z,1.70
2019-03-06T10:46:21.494Z,1.90
2019-03-06T10:48:50.610Z,4.30
2019-03-06T10:51:19.971Z,1.40
2019-03-06T10:53:49.079Z,2.83
2019-03-06T10:56:18.344Z,5.70
2019-03-06T10:58:47.446Z,2.30
2019-03-06T11:01:17.084Z,3.37
2019-03-06T11:04:08.028Z,3.13
2019-03-06T11:06:37.287Z,3.20
2019-03-06T11:09:09.499Z,4.50
2019-03-06T11:11:38.636Z,2.43
2019-03-06T11:14:08.585Z,3.43
2019-03-06T11:16:37.786Z,5.17
2019-03-06T11:19:08.614Z,1.77
2019-03-06T11:21:37.803Z,2.90
2019-03-06T11:24:07.505Z,3.20
2019-03-06T11:26:36.937Z,3.87
2019-03-06T11:29:08.742Z,2.80
2019-03-06T11:31:38.009Z,2.03
2019-03-06T11:34:07.755Z,1.80
2019-03-06T11:36:36.947Z,4.03
2019-03-06T11:39:10.323Z,2.70
2019-03-06T11:41:39.698Z,3.93
2019-03-06T11:44:10.205Z,2.03
2019-03-06T11:46:39.297Z,2.70
2019-03-06T11:49:08.387Z,2.47
2019-03-06T11:51:37.471Z,2.57
2019-03-06T11:54:06.572Z,2.07
2019-03-06T11:56:35.849Z,3.57
2019-03-06T11:59:05.055Z,1.77
2019-03-06T12:01:35.753Z,1.63
2019-03-06T12:04:05.231Z,5.43
2019-03-06T12:06:34.413Z,3.00
2019-03-06T12:09:04.610Z,1.93
2019-03-06T12:11:33.926Z,3.33
2019-03-06T12:14:03.044Z,2.70
2019-03-06T12:16:32.145Z,2.27
2019-03-06T12:19:01.233Z,2.83
2019-03-06T12:21:30.342Z,3.70
2019-03-06T12:23:59.426Z,2.90
2019-03-06T12:26:29.007Z,2.43
2019-03-06T12:28:58.117Z,2.13
2019-03-06T12:31:27.233Z,2.17
2019-03-06T12:33:56.315Z,2.80
2019-03-06T12:36:25.425Z,2.63
2019-03-06T12:38:54.507Z,1.93
2019-03-06T12:41:23.608Z,2.93
2019-03-06T12:43:52.702Z,2.47
2019-03-06T12:46:24.300Z,2.60
2019-03-06T12:49:04.085Z,2.37
2019-03-06T12:51:33.546Z,2.93
2019-03-06T12:54:02.845Z,2.57
2019-03-06T12:56:31.959Z,2.43
2019-03-06T12:59:01.049Z,3.03
2019-03-06T13:01:30.172Z,2.83
2019-03-06T13:03:59.399Z,3.13
2019-03-06T13:06:28.439Z,2.23
2019-03-06T13:08:58.159Z,5.20
2019-03-06T13:11:27.267Z,3.43
2019-03-06T13:13:56.350Z,3.90
2019-03-06T13:16:25.861Z,4.37
2019-03-06T13:18:54.942Z,4.07
2019-03-06T13:21:24.071Z,3.10
2019-03-06T13:23:53.150Z,1.93
2019-03-06T13:26:22.263Z,2.93
2019-03-06T13:28:57.521Z,3.20
2019-03-06T13:31:22.193Z,3.10
2019-03-06T13:34:10.430Z,4.30
2019-03-06T13:36:39.547Z,3.17
2019-03-06T13:39:09.383Z,2.93
2019-03-06T13:41:38.625Z,3.80
2019-03-06T13:44:07.998Z,3.23
2019-03-06T13:46:37.226Z,2.37
2019-03-06T13:49:06.306Z,3.30
2019-03-06T13:51:35.420Z,2.00
2019-03-06T13:54:04.598Z,3.47
2019-03-06T13:56:33.698Z,3.77
2019-03-06T13:59:02.780Z,3.50
2019-03-06T14:01:31.877Z,3.43
2019-03-06T14:04:00.974Z,5.30
2019-03-06T14:06:30.079Z,3.87
2019-03-06T14:08:59.161Z,2.70
2019-03-06T14:11:28.466Z,3.93
2019-03-06T14:13:57.551Z,2.33
2019-03-06T14:16:26.758Z,2.27
2019-03-06T14:18:55.866Z,2.97
2019-03-06T14:21:24.970Z,2.63
2019-03-06T14:23:54.073Z,2.53
2019-03-06T14:26:23.162Z,3.33
2019-03-06T14:28:52.291Z,2.93
2019-03-06T14:31:23.225Z,5.27
2019-03-06T14:33:52.466Z,4.13
2019-03-06T14:36:21.543Z,3.60
2019-03-06T14:38:50.644Z,3.93
2019-03-06T14:41:19.727Z,2.60
2019-03-06T14:43:49.115Z,2.87
2019-03-06T14:46:18.221Z,2.70
2019-03-06T14:48:47.326Z,2.57
2019-03-06T14:51:16.420Z,5.03
2019-03-06T14:53:45.537Z,5.93
2019-03-06T14:56:14.628Z,3.43
2019-03-06T14:58:43.924Z,5.20
2019-03-06T15:01:13.030Z,6.13
2019-03-06T15:03:42.147Z,3.13
2019-03-06T15:06:12.709Z,3.43
2019-03-06T15:08:41.932Z,4.80
2019-03-06T15:11:11.018Z,3.23
2019-03-06T15:13:40.313Z,5.03
2019-03-06T15:16:09.398Z,4.30
2019-03-06T15:18:38.504Z,4.30
2019-03-06T15:21:07.622Z,4.43
2019-03-06T15:23:36.734Z,4.80
2019-03-06T15:26:05.824Z,3.70
2019-03-06T15:28:34.938Z,3.30
2019-03-06T15:31:04.050Z,2.93
2019-03-06T15:33:33.185Z,5.23
2019-03-06T15:36:02.476Z,5.53
2019-03-06T15:38:31.558Z,4.60
2019-03-06T15:41:00.671Z,5.00
2019-03-06T15:43:29.763Z,4.70
2019-03-06T15:45:58.882Z,5.13
2019-03-06T15:48:27.967Z,4.50
2019-03-06T15:50:57.082Z,4.23
2019-03-06T15:53:26.169Z,3.83
2019-03-06T15:55:56.647Z,4.60
2019-03-06T15:58:25.740Z,3.63
2019-03-06T16:00:54.950Z,4.87
2019-03-06T16:03:24.043Z,6.03
2019-03-06T16:05:53.151Z,3.50
2019-03-06T16:08:22.254Z,4.93
2019-03-06T16:10:51.370Z,4.87
2019-03-06T16:13:20.554Z,3.80
2019-03-06T16:15:49.666Z,3.80
2019-03-06T16:18:18.855Z,4.50
2019-03-06T16:20:47.963Z,3.60
2019-03-06T16:23:17.401Z,7.77
2019-03-06T16:25:46.558Z,7.20
2019-03-06T16:28:15.657Z,5.50
2019-03-06T16:30:45.179Z,4.37
2019-03-06T16:33:14.248Z,4.53
2019-03-06T16:35:43.339Z,4.97
2019-03-06T16:38:12.718Z,3.47
2019-03-06T16:40:41.916Z,5.07
2019-03-06T16:43:11.024Z,5.20
2019-03-06T16:45:40.106Z,5.17
2019-03-06T16:48:09.313Z,7.20
2019-03-06T16:50:38.496Z,4.00
2019-03-06T16:53:07.774Z,6.20
2019-03-06T16:55:36.974Z,3.47
2019-03-06T16:58:06.180Z,4.90
2019-03-06T17:00:35.381Z,3.60
2019-03-06T17:03:04.931Z,4.27
2019-03-06T17:05:34.087Z,4.87
2019-03-06T17:08:03.699Z,3.50
2019-03-06T17:10:33.047Z,4.07
2019-03-06T17:13:02.547Z,5.40
2019-03-06T17:15:32.223Z,3.20
2019-03-06T17:18:01.524Z,5.27
2019-03-06T17:20:31.201Z,4.87
2019-03-06T17:23:00.307Z,3.77
2019-03-06T17:25:29.699Z,9.30
2019-03-06T17:27:59.016Z,5.03
2019-03-06T17:30:28.371Z,4.53
2019-03-06T17:33:02.061Z,4.17
2019-03-06T17:35:31.551Z,4.43
2019-03-06T17:38:00.856Z,4.50
2019-03-06T17:40:31.450Z,5.27
2019-03-06T17:43:00.553Z,5.33
2019-03-06T17:45:29.662Z,4.70
2019-03-06T17:47:58.922Z,5.20
2019-03-06T17:50:28.138Z,6.13
2019-03-06T17:52:57.514Z,4.93
2019-03-06T17:55:26.631Z,6.73
2019-03-06T17:57:55.706Z,3.80
2019-03-06T18:00:31.205Z,5.50
2019-03-06T18:03:00.547Z,3.83
2019-03-06T18:05:29.647Z,4.80
2019-03-06T18:07:58.725Z,4.73
2019-03-06T18:10:29.175Z,3.87
2019-03-06T18:12:58.329Z,4.60
2019-03-06T18:15:27.878Z,4.93
2019-03-06T18:17:56.950Z,4.50
2019-03-06T18:20:26.065Z,5.33
2019-03-06T18:22:55.434Z,3.33
2019-03-06T18:25:24.529Z,4.90
2019-03-06T18:27:53.615Z,4.80
2019-03-06T18:30:23.031Z,5.27
2019-03-06T18:32:52.106Z,4.60
2019-03-06T18:35:21.334Z,4.50
2019-03-06T18:37:50.612Z,6.50
2019-03-06T18:40:19.745Z,5.63
2019-03-06T18:42:48.931Z,4.13
2019-03-06T18:45:18.526Z,5.40
2019-03-06T18:47:47.609Z,3.73
2019-03-06T18:50:17.952Z,3.50
2019-03-06T18:52:47.116Z,3.20
2019-03-06T18:55:16.571Z,4.03
2019-03-06T18:57:45.679Z,7.43
2019-03-06T19:00:19.948Z,4.97
2019-03-06T19:02:49.230Z,6.97
2019-03-06T19:05:19.098Z,6.47
2019-03-06T19:07:49.813Z,4.43
2019-03-06T19:10:19.201Z,5.50
2019-03-06T19:12:48.572Z,11.90
2019-03-06T19:15:18.898Z,6.47
2019-03-06T19:17:47.992Z,4.10
2019-03-06T19:20:19.428Z,3.80
2019-03-06T19:22:48.764Z,3.87
2019-03-06T19:25:18.005Z,6.00
2019-03-06T19:27:47.397Z,4.13
2019-03-06T19:30:20.742Z,6.60
2019-03-06T19:32:49.947Z,3.53
2019-03-06T19:35:20.661Z,7.67
2019-03-06T19:37:51.101Z,5.37
2019-03-06T19:40:20.587Z,3.70
2019-03-06T19:42:49.696Z,5.30
2019-03-06T19:45:19.336Z,7.10
2019-03-06T19:47:50.467Z,6.20
2019-03-06T19:50:20.441Z,8.07
2019-03-06T19:52:49.751Z,6.70
2019-03-06T19:55:19.489Z,6.13
2019-03-06T19:57:56.965Z,6.80
2019-03-06T20:00:26.696Z,6.87
2019-03-06T20:02:56.017Z,4.50
2019-03-06T20:05:25.744Z,3.77
2019-03-06T20:07:55.969Z,7.00
2019-03-06T20:10:25.252Z,6.00
2019-03-06T20:12:54.352Z,5.27
2019-03-06T20:15:23.506Z,4.87
2019-03-06T20:17:52.611Z,3.27
2019-03-06T20:20:21.697Z,3.57
2019-03-06T20:22:50.869Z,5.53
2019-03-06T20:25:20.381Z,5.60
2019-03-06T20:27:49.462Z,4.83
2019-03-06T20:30:19.567Z,4.10
2019-03-06T20:32:48.846Z,5.03
2019-03-06T20:35:20.428Z,3.57
2019-03-06T20:37:49.875Z,4.13
2019-03-06T20:40:19.256Z,5.67
2019-03-06T20:42:48.428Z,5.90
2019-03-06T20:45:17.853Z,3.73
2019-03-06T20:47:46.931Z,3.17
2019-03-06T20:50:16.059Z,3.17
2019-03-06T20:52:45.348Z,5.77
2019-03-06T20:55:15.403Z,5.63
2019-03-06T20:57:44.515Z,4.60
2019-03-06T21:00:15.708Z,3.40
2019-03-06T21:02:44.785Z,7.73
2019-03-06T21:05:13.886Z,5.80
2019-03-06T21:07:45.170Z,3.50
2019-03-06T21:10:14.723Z,3.37
2019-03-06T21:12:43.978Z,2.27
2019-03-06T21:15:14.602Z,2.20
2019-03-06T21:17:43.694Z,3.30
2019-03-06T21:20:14.761Z,3.73
2019-03-06T21:22:43.843Z,4.70
2019-03-06T21:25:14.364Z,3.47
2019-03-06T21:27:43.472Z,2.73
2019-03-06T21:30:15.771Z,2.10
2019-03-06T21:32:44.853Z,2.63
2019-03-06T21:35:14.054Z,5.03
2019-03-06T21:37:43.167Z,3.27
2019-03-06T21:40:12.496Z,5.13
2019-03-06T21:42:41.583Z,2.00
2019-03-06T21:45:10.928Z,4.43
2019-03-06T21:47:39.999Z,3.43
2019-03-06T21:50:10.733Z,2.17
2019-03-06T21:52:39.851Z,4.93
2019-03-06T21:55:10.512Z,3.93
2019-03-06T21:57:39.619Z,2.50
2019-03-06T22:00:12.088Z,3.80
2019-03-06T22:02:41.191Z,2.70
2019-03-06T22:05:10.270Z,5.00
2019-03-06T22:07:39.380Z,5.37
2019-03-06T22:10:08.805Z,2.90
2019-03-06T22:12:37.902Z,4.57
2019-03-06T22:15:08.159Z,4.83
2019-03-06T22:17:37.254Z,6.23
2019-03-06T22:20:07.114Z,4.27
2019-03-06T22:22:36.230Z,3.50
2019-03-06T22:25:06.061Z,4.50
2019-03-06T22:27:35.438Z,2.73
2019-03-06T22:30:05.464Z,3.27
2019-03-06T22:32:34.582Z,4.63
2019-03-06T22:35:03.673Z,3.10
2019-03-06T22:37:32.766Z,4.97
2019-03-06T22:40:01.848Z,3.87
2019-03-06T22:42:31.219Z,5.17
2019-03-06T22:45:00.341Z,4.97
2019-03-06T22:47:29.393Z,6.20
2019-03-06T22:49:58.475Z,5.60
2019-03-06T22:52:27.574Z,6.73
2019-03-06T22:54:56.647Z,4.13
2019-03-06T22:57:26.031Z,4.90
2019-03-06T22:59:55.108Z,4.10
2019-03-06T23:02:24.981Z,4.67
2019-03-06T23:04:54.112Z,4.40
2019-03-06T23:07:23.439Z,5.30
2019-03-06T23:09:52.512Z,4.77
2019-03-06T23:12:21.619Z,4.93
2019-03-06T23:14:50.718Z,4.17
2019-03-06T23:17:19.809Z,6.63
2019-03-06T23:19:48.891Z,6.60
2019-03-06T23:22:17.990Z,6.00
2019-03-06T23:24:48.754Z,5.93
2019-03-06T23:27:17.902Z,5.77
2019-03-06T23:29:47.006Z,5.03
2019-03-06T23:32:16.171Z,6.23
2019-03-06T23:34:45.282Z,5.17
2019-03-06T23:37:14.364Z,3.60
2019-03-06T23:39:43.634Z,6.53
2019-03-06T23:42:12.709Z,6.37
2019-03-06T23:44:41.809Z,6.47
2019-03-06T23:47:10.882Z,5.97
2019-03-06T23:49:39.984Z,6.43
2019-03-06T23:52:20.687Z,6.27
2019-03-06T23:54:49.790Z,7.23
2019-03-06T23:57:18.866Z,6.57
2019-03-06T23:59:47.965Z,8.23
